createdAt,value
2022-12-11T00:00:26.745Z,102.05
2022-12-11T00:02:53.969Z,104.68
2022-12-11T00:05:21.355Z,104.20
2022-12-11T00:07:48.859Z,98.65
2022-12-11T00:10:16.243Z,102.38
2022-12-11T00:12:43.515Z,102.63
2022-12-11T00:15:11.623Z,100.82
2022-12-11T00:17:39.106Z,100.22
2022-12-11T00:20:07.986Z,99.30
2022-12-11T00:22:36.394Z,106.55
2022-12-11T00:25:03.878Z,97.25
2022-12-11T00:27:31.651Z,94.85
2022-12-11T00:29:58.919Z,91.28
2022-12-11T00:32:28.442Z,94.68
2022-12-11T00:34:56.017Z,95.43
2022-12-11T00:37:23.343Z,88.38
2022-12-11T00:39:50.746Z,90.05
2022-12-11T00:42:18.003Z,91.75
2022-12-11T00:44:45.199Z,81.75
2022-12-11T00:47:12.734Z,81.22
2022-12-11T00:49:42.838Z,81.70
2022-12-11T00:52:12.390Z,75.55
2022-12-11T00:54:39.719Z,83.97
2022-12-11T00:57:06.944Z,76.38
2022-12-11T00:59:36.257Z,73.15
2022-12-11T01:02:03.574Z,70.35
2022-12-11T01:04:30.861Z,74.20
2022-12-11T01:06:58.120Z,76.32
2022-12-11T01:09:44.129Z,71.63
2022-12-11T01:12:11.395Z,73.95
2022-12-11T01:14:38.676Z,72.18
2022-12-11T01:17:05.972Z,72.10
2022-12-11T01:19:33.342Z,74.45
2022-12-11T01:22:00.655Z,79.07
2022-12-11T01:24:27.933Z,77.65
2022-12-11T01:26:55.165Z,81.82
2022-12-11T01:29:22.458Z,77.93
2022-12-11T01:31:49.705Z,72.25
2022-12-11T01:34:16.967Z,72.47
2022-12-11T01:36:44.197Z,76.38
2022-12-11T01:39:11.443Z,76.85
2022-12-11T01:41:38.792Z,77.03
2022-12-11T01:44:07.274Z,71.53
2022-12-11T01:46:35.958Z,72.93
2022-12-11T01:49:06.446Z,71.18
2022-12-11T01:51:37.045Z,66.57
2022-12-11T01:54:09.096Z,73.68
2022-12-11T01:56:37.465Z,62.50
2022-12-11T01:59:07.526Z,63.72
2022-12-11T02:01:51.193Z,60.63
2022-12-11T02:04:19.396Z,58.90
2022-12-11T02:06:48.991Z,59.28
2022-12-11T02:09:25.547Z,57.97
2022-12-11T02:12:10.976Z,54.28
2022-12-11T02:14:43.284Z,55.97
2022-12-11T02:17:34.823Z,57.25
2022-12-11T02:20:11.661Z,55.05
2022-12-11T02:22:53.928Z,56.90
2022-12-11T02:25:40.598Z,56.20
2022-12-11T02:28:38.712Z,57.25
2022-12-11T02:31:24.362Z,61.10
2022-12-11T02:34:05.171Z,70.10
2022-12-11T02:36:36.749Z,64.43
2022-12-11T02:39:05.370Z,64.80
2022-12-11T02:41:33.607Z,62.88
2022-12-11T02:44:02.925Z,67.55
2022-12-11T02:46:30.717Z,69.70
2022-12-11T02:48:58.699Z,60.63
2022-12-11T02:51:32.622Z,58.42
2022-12-11T02:54:00.367Z,59.63
2022-12-11T02:56:34.655Z,64.20
2022-12-11T02:59:07.254Z,63.22
2022-12-11T03:01:34.727Z,67.95
2022-12-11T03:04:02.473Z,70.10
2022-12-11T03:06:36.596Z,70.32
2022-12-11T03:09:05.509Z,69.63
2022-12-11T03:11:32.766Z,70.43
2022-12-11T03:14:02.871Z,71.40
2022-12-11T03:16:32.952Z,76.93
2022-12-11T03:19:13.069Z,70.53
2022-12-11T03:21:53.921Z,73.28
2022-12-11T03:24:27.128Z,69.53
2022-12-11T03:27:02.191Z,68.82
2022-12-11T03:29:41.261Z,68.90
2022-12-11T03:32:14.966Z,72.15
2022-12-11T03:34:54.537Z,73.03
2022-12-11T03:39:58.280Z,68.03
2022-12-11T03:42:25.993Z,66.00
2022-12-11T03:44:55.432Z,72.80
2022-12-11T03:47:24.974Z,70.05
2022-12-11T03:49:53.029Z,67.07
2022-12-11T03:52:20.830Z,69.63
2022-12-11T03:54:50.776Z,68.85
2022-12-11T03:57:22.020Z,70.75
2022-12-11T03:59:49.604Z,69.28
2022-12-11T04:02:16.900Z,67.90
2022-12-11T04:04:44.261Z,62.33
2022-12-11T04:07:11.559Z,67.57
2022-12-11T04:09:38.839Z,65.07
2022-12-11T04:12:06.174Z,61.15
2022-12-11T04:14:51.897Z,59.78
2022-12-11T04:17:45.341Z,55.50
2022-12-11T04:20:31.379Z,59.58
2022-12-11T04:23:19.502Z,49.45
2022-12-11T04:25:46.815Z,55.45
2022-12-11T04:28:14.038Z,63.92
2022-12-11T04:30:41.633Z,66.70
2022-12-11T04:33:09.111Z,60.88
2022-12-11T04:35:36.963Z,60.58
2022-12-11T04:38:04.429Z,54.90
2022-12-11T04:40:31.730Z,48.20
2022-12-11T04:42:59.058Z,53.10
2022-12-11T04:45:26.324Z,45.88
2022-12-11T04:47:53.626Z,43.10
2022-12-11T04:50:20.928Z,54.47
2022-12-11T04:52:48.210Z,55.78
2022-12-11T04:55:15.427Z,62.08
2022-12-11T04:57:42.667Z,65.43
2022-12-11T05:00:11.977Z,63.30
2022-12-11T05:02:40.528Z,68.38
2022-12-11T05:05:09.916Z,63.67
2022-12-11T05:07:37.950Z,65.82
2022-12-11T05:10:06.216Z,69.72
2022-12-11T05:12:35.257Z,69.55
2022-12-11T05:15:02.668Z,66.32
2022-12-11T05:17:29.921Z,71.55
2022-12-11T05:19:57.183Z,68.40
2022-12-11T05:22:24.417Z,68.50
2022-12-11T05:24:51.687Z,68.10
2022-12-11T05:27:18.929Z,62.00
2022-12-11T05:29:46.219Z,64.30
2022-12-11T05:32:13.504Z,66.30
2022-12-11T05:34:41.071Z,65.80
2022-12-11T05:37:08.810Z,67.45
2022-12-11T05:39:36.115Z,64.65
2022-12-11T05:42:03.502Z,65.50
2022-12-11T05:44:30.765Z,62.20
2022-12-11T05:46:58.030Z,62.28
2022-12-11T05:49:30.656Z,63.65
2022-12-11T05:51:58.342Z,63.63
2022-12-11T05:54:25.700Z,67.13
2022-12-11T05:56:52.949Z,60.38
2022-12-11T05:59:20.414Z,63.38
2022-12-11T06:01:47.760Z,57.13
2022-12-11T06:04:15.476Z,59.42
2022-12-11T06:06:43.899Z,56.55
2022-12-11T06:09:15.541Z,57.13
2022-12-11T06:11:43.018Z,59.58
2022-12-11T06:14:11.614Z,58.95
2022-12-11T06:16:38.901Z,62.90
2022-12-11T06:19:06.286Z,58.35
2022-12-11T06:21:34.074Z,64.35
2022-12-11T06:24:03.385Z,59.60
2022-12-11T06:26:32.075Z,59.72
2022-12-11T06:28:59.491Z,60.63
2022-12-11T06:31:26.875Z,60.40
2022-12-11T06:33:54.416Z,63.58
2022-12-11T06:36:23.026Z,61.88
2022-12-11T06:38:50.749Z,62.55
2022-12-11T06:41:18.695Z,64.47
2022-12-11T06:43:46.162Z,63.35
2022-12-11T06:46:16.012Z,64.82
2022-12-11T06:48:43.874Z,67.63
2022-12-11T06:51:13.882Z,69.03
2022-12-11T06:53:41.893Z,69.75
2022-12-11T06:56:14.785Z,69.07
2022-12-11T07:01:20.407Z,70.88
2022-12-11T07:03:48.019Z,69.35
2022-12-11T07:06:15.690Z,59.80
2022-12-11T07:08:43.628Z,57.40
2022-12-11T07:11:14.166Z,59.05
2022-12-11T07:13:44.789Z,55.97
2022-12-11T07:16:13.981Z,61.90
2022-12-11T07:18:43.866Z,56.03
2022-12-11T07:21:12.900Z,55.72
2022-12-11T07:23:40.499Z,53.05
2022-12-11T07:26:13.184Z,55.45
2022-12-11T07:28:40.923Z,55.25
2022-12-11T07:31:10.021Z,52.22
2022-12-11T07:33:37.514Z,56.97
2022-12-11T07:36:06.942Z,59.72
2022-12-11T07:38:34.447Z,62.63
2022-12-11T07:41:13.973Z,62.00
2022-12-11T07:43:41.953Z,53.67
2022-12-11T07:46:18.611Z,62.40
2022-12-11T07:48:47.243Z,58.80
2022-12-11T07:51:26.686Z,60.30
2022-12-11T07:53:58.733Z,57.33
2022-12-11T07:56:26.989Z,59.78
2022-12-11T07:58:54.443Z,62.72
2022-12-11T08:01:24.101Z,63.45
2022-12-11T08:03:52.080Z,59.08
2022-12-11T08:06:21.384Z,59.22
2022-12-11T08:08:48.641Z,63.63
2022-12-11T08:11:16.182Z,61.85
2022-12-11T08:13:44.890Z,56.28
2022-12-11T08:16:14.579Z,59.72
2022-12-11T08:18:42.361Z,58.92
2022-12-11T08:21:15.706Z,58.13
2022-12-11T08:23:43.445Z,57.85
2022-12-11T08:26:16.849Z,61.30
2022-12-11T08:28:44.646Z,60.70
2022-12-11T08:31:17.214Z,58.67
2022-12-11T08:33:45.648Z,61.53
2022-12-11T08:36:15.740Z,63.13
2022-12-11T08:38:43.213Z,56.58
2022-12-11T08:41:18.702Z,56.92
2022-12-11T08:43:46.771Z,57.90
2022-12-11T08:46:14.266Z,59.22
2022-12-11T08:48:42.554Z,55.42
2022-12-11T08:51:13.383Z,55.72
2022-12-11T08:53:41.029Z,55.70
2022-12-11T08:56:10.702Z,60.13
2022-12-11T08:58:38.360Z,59.83
2022-12-11T09:01:12.812Z,56.28
2022-12-11T09:03:40.677Z,55.05
2022-12-11T09:06:10.140Z,60.47
2022-12-11T09:08:40.113Z,60.08
2022-12-11T09:11:09.719Z,57.45
2022-12-11T09:13:39.927Z,56.53
2022-12-11T09:16:13.613Z,59.85
2022-12-11T09:18:41.556Z,62.72
2022-12-11T09:21:13.472Z,62.75
2022-12-11T09:23:41.436Z,57.13
2022-12-11T09:26:13.151Z,56.80
2022-12-11T09:28:45.940Z,59.40
2022-12-11T09:31:16.640Z,58.83
2022-12-11T09:33:44.093Z,57.20
2022-12-11T09:36:12.062Z,57.90
2022-12-11T09:38:39.468Z,60.90
2022-12-11T09:41:21.891Z,61.75
2022-12-11T09:44:13.846Z,67.95
2022-12-11T09:46:41.588Z,61.17
2022-12-11T09:49:40.372Z,62.10
2022-12-11T09:52:19.155Z,60.17
2022-12-11T09:54:58.255Z,60.47
2022-12-11T09:57:28.641Z,62.50
2022-12-11T10:00:17.126Z,63.90
2022-12-11T10:02:58.228Z,61.35
2022-12-11T10:05:37.330Z,70.38
2022-12-11T10:08:14.923Z,66.63
2022-12-11T10:10:47.335Z,69.53
2022-12-11T10:13:34.936Z,72.75
2022-12-11T10:16:10.484Z,76.63
2022-12-11T10:18:38.084Z,78.03
2022-12-11T10:21:05.603Z,77.82
2022-12-11T10:23:46.506Z,81.28
2022-12-11T10:26:24.233Z,80.18
2022-12-11T10:28:52.070Z,79.88
2022-12-11T10:31:20.245Z,83.97
2022-12-11T10:33:50.667Z,82.10
2022-12-11T10:36:23.398Z,88.65
2022-12-11T10:38:50.669Z,87.13
2022-12-11T10:41:24.622Z,84.38
2022-12-11T10:43:54.975Z,79.95
2022-12-11T10:46:32.938Z,88.93
2022-12-11T10:49:01.423Z,87.13
2022-12-11T10:51:31.534Z,86.63
2022-12-11T10:54:20.603Z,86.80
2022-12-11T10:56:49.139Z,85.47
2022-12-11T10:59:40.293Z,87.72
2022-12-11T11:02:19.700Z,89.00
2022-12-11T11:04:47.386Z,83.47
2022-12-11T11:07:21.348Z,85.72
2022-12-11T11:09:49.314Z,84.00
2022-12-11T11:12:23.270Z,86.65
2022-12-11T11:15:22.852Z,82.47
2022-12-11T11:17:55.823Z,81.30
2022-12-11T11:20:29.262Z,84.13
2022-12-11T11:23:02.003Z,84.22
2022-12-11T11:25:32.636Z,88.10
2022-12-11T11:28:05.364Z,79.90
2022-12-11T11:30:41.571Z,81.93
2022-12-11T11:33:18.241Z,78.70
2022-12-11T11:36:20.313Z,82.97
2022-12-11T11:38:58.892Z,80.10
2022-12-11T11:41:35.949Z,78.55
2022-12-11T11:44:05.742Z,85.00
2022-12-11T11:46:43.356Z,83.22
2022-12-11T11:49:19.196Z,80.85
2022-12-11T11:51:55.199Z,81.63
2022-12-11T11:54:33.574Z,81.50
2022-12-11T11:57:17.113Z,75.78
2022-12-11T11:59:54.955Z,78.20
2022-12-11T12:02:25.466Z,80.63
2022-12-11T12:04:53.212Z,81.32
2022-12-11T12:07:26.444Z,81.05
2022-12-11T12:10:22.636Z,72.05
2022-12-11T12:13:18.779Z,77.78
2022-12-11T12:16:00.649Z,73.55
2022-12-11T12:18:46.682Z,73.25
2022-12-11T12:21:32.294Z,75.88
2022-12-11T12:24:33.879Z,75.40
2022-12-11T12:27:51.526Z,74.10
2022-12-11T12:30:22.346Z,73.82
2022-12-11T12:33:35.868Z,68.47
2022-12-11T12:36:32.036Z,70.75
2022-12-11T12:39:15.152Z,73.05
2022-12-11T12:44:18.219Z,81.65
2022-12-11T12:47:04.572Z,76.07
2022-12-11T12:49:36.171Z,83.95
2022-12-11T12:52:05.144Z,76.63
2022-12-11T12:54:35.555Z,73.13
2022-12-11T12:57:03.359Z,82.95
2022-12-11T12:59:58.271Z,71.40
2022-12-11T13:02:26.769Z,74.47
2022-12-11T13:05:00.759Z,73.07
2022-12-11T13:07:31.853Z,74.85
2022-12-11T13:10:06.894Z,70.15
2022-12-11T13:12:42.684Z,67.45
2022-12-11T13:15:44.029Z,72.95
2022-12-11T13:18:35.039Z,71.50
2022-12-11T13:21:25.348Z,72.75
2022-12-11T13:23:53.082Z,66.15
2022-12-11T13:26:31.282Z,68.78
2022-12-11T13:28:58.779Z,67.45
2022-12-11T13:31:35.084Z,64.00
2022-12-11T13:34:18.451Z,62.25
2022-12-11T13:36:51.213Z,66.32
2022-12-11T13:39:34.264Z,64.63
2022-12-11T13:44:33.511Z,60.05
2022-12-11T13:47:03.229Z,60.65
2022-12-11T13:49:36.213Z,60.45
2022-12-11T13:54:38.992Z,69.60
2022-12-11T13:57:09.201Z,61.88
2022-12-11T13:59:38.905Z,59.55
2022-12-11T14:02:16.190Z,65.70
2022-12-11T14:04:46.786Z,60.40
2022-12-11T14:07:16.376Z,58.28
2022-12-11T14:09:51.670Z,59.72
2022-12-11T14:12:21.271Z,56.05
2022-12-11T14:14:52.161Z,57.60
2022-12-11T14:17:30.589Z,55.58
2022-12-11T14:20:07.906Z,55.80
2022-12-11T14:22:35.518Z,57.13
2022-12-11T14:25:17.249Z,51.38
2022-12-11T14:27:50.214Z,51.42
2022-12-11T14:30:36.480Z,54.42
2022-12-11T14:33:05.721Z,50.00
2022-12-11T14:35:58.498Z,52.45
2022-12-11T14:38:48.378Z,54.00
2022-12-11T14:41:27.560Z,52.97
2022-12-11T14:44:07.943Z,50.63
2022-12-11T14:47:01.074Z,48.47
2022-12-11T14:52:45.659Z,51.92
2022-12-11T14:55:31.695Z,46.03
2022-12-11T14:58:03.274Z,50.97
2022-12-11T15:00:37.783Z,48.53
2022-12-11T15:03:08.100Z,49.63
2022-12-11T15:05:40.782Z,48.83
2022-12-11T15:08:13.273Z,49.70
2022-12-11T15:24:07.141Z,47.90
2022-12-11T15:29:59.692Z,50.13
2022-12-11T15:32:27.044Z,50.72
2022-12-11T15:34:56.854Z,50.60
2022-12-11T15:40:01.834Z,46.08
2022-12-11T15:42:45.549Z,46.80
2022-12-11T15:45:39.315Z,49.20
2022-12-11T15:48:08.149Z,46.03
2022-12-11T15:50:37.123Z,45.17
2022-12-11T15:53:04.728Z,47.00
2022-12-11T15:55:34.971Z,44.63
2022-12-11T15:58:14.540Z,43.65
2022-12-11T16:00:42.375Z,48.55
2022-12-11T16:03:13.368Z,46.88
2022-12-11T16:05:41.830Z,47.17
2022-12-11T16:08:15.224Z,48.63
2022-12-11T16:10:47.251Z,48.45
2022-12-11T16:13:18.177Z,48.87
2022-12-11T16:15:47.211Z,49.08
2022-12-11T16:18:23.492Z,49.90
2022-12-11T16:20:51.942Z,51.95
2022-12-11T16:23:21.791Z,50.65
2022-12-11T16:25:49.362Z,53.38
2022-12-11T16:28:22.526Z,47.15
2022-12-11T16:30:50.042Z,54.95
2022-12-11T16:33:17.613Z,49.97
2022-12-11T16:35:45.339Z,46.95
2022-12-11T16:38:13.629Z,56.88
2022-12-11T16:40:41.576Z,50.58
2022-12-11T16:43:08.812Z,52.00
2022-12-11T16:45:36.631Z,51.55
2022-12-11T16:48:04.768Z,49.85
2022-12-11T16:50:32.471Z,50.72
2022-12-11T16:52:59.903Z,51.33
2022-12-11T16:55:27.192Z,50.75
2022-12-11T16:57:55.234Z,52.22
2022-12-11T17:00:22.785Z,47.35
2022-12-11T17:02:50.102Z,46.28
2022-12-11T17:05:17.565Z,48.72
2022-12-11T17:07:44.928Z,48.15
2022-12-11T17:10:12.564Z,49.88
2022-12-11T17:12:39.844Z,50.72
2022-12-11T17:15:07.612Z,48.58
2022-12-11T17:17:35.539Z,46.50
2022-12-11T17:20:03.062Z,47.05
2022-12-11T17:22:30.365Z,47.55
2022-12-11T17:24:57.833Z,43.72
2022-12-11T17:27:25.150Z,42.90
2022-12-11T17:29:52.903Z,44.58
2022-12-11T17:32:20.660Z,47.58
2022-12-11T17:34:50.498Z,46.13
2022-12-11T17:37:18.717Z,46.83
2022-12-11T17:39:47.513Z,50.05
2022-12-11T17:42:14.831Z,49.83
2022-12-11T17:44:42.326Z,48.70
2022-12-11T17:47:12.067Z,49.33
2022-12-11T17:49:42.346Z,48.78
2022-12-11T17:54:46.107Z,51.78
2022-12-11T17:57:13.357Z,49.65
2022-12-11T17:59:40.573Z,52.08
2022-12-11T18:02:08.851Z,45.67
2022-12-11T18:07:12.145Z,47.22
2022-12-11T18:09:42.459Z,48.08
2022-12-11T18:12:10.349Z,46.03
2022-12-11T18:14:38.267Z,44.55
2022-12-11T18:17:06.174Z,45.80
2022-12-11T18:19:34.762Z,45.13
2022-12-11T18:22:02.054Z,46.60
2022-12-11T18:24:31.854Z,45.45
2022-12-11T18:27:00.206Z,46.33
2022-12-11T18:29:27.527Z,41.83
2022-12-11T18:31:54.995Z,47.88
2022-12-11T18:34:22.358Z,46.75
2022-12-11T18:36:49.613Z,46.13
2022-12-11T18:39:16.998Z,46.00
2022-12-11T18:41:45.625Z,41.50
2022-12-11T18:44:22.560Z,45.60
2022-12-11T18:46:50.397Z,42.67
2022-12-11T18:49:17.882Z,44.03
2022-12-11T18:51:45.170Z,42.85
2022-12-11T18:54:14.855Z,41.92
2022-12-11T18:56:42.192Z,45.65
2022-12-11T18:59:13.569Z,46.33
2022-12-11T19:01:40.938Z,46.25
2022-12-11T19:04:10.933Z,42.42
2022-12-11T19:06:38.698Z,42.95
2022-12-11T19:09:07.279Z,44.25
2022-12-11T19:11:36.181Z,42.42
2022-12-11T19:14:05.816Z,39.88
2022-12-11T19:16:38.813Z,46.67
2022-12-11T19:19:09.952Z,42.25
2022-12-11T19:21:38.527Z,43.42
2022-12-11T19:24:07.024Z,43.47
2022-12-11T19:26:35.525Z,48.90
2022-12-11T19:29:03.132Z,44.75
2022-12-11T19:31:32.188Z,45.90
2022-12-11T19:34:00.039Z,46.83
2022-12-11T19:36:28.434Z,47.90
2022-12-11T19:39:01.176Z,45.90
2022-12-11T19:41:30.170Z,44.72
2022-12-11T19:43:59.191Z,44.63
2022-12-11T19:46:27.031Z,44.42
2022-12-11T19:48:55.921Z,47.78
2022-12-11T19:51:35.186Z,44.30
2022-12-11T19:54:02.992Z,43.50
2022-12-11T19:56:30.815Z,45.50
2022-12-11T19:59:01.145Z,47.15
2022-12-11T20:01:31.179Z,49.28
2022-12-11T20:04:01.104Z,49.63
2022-12-11T20:06:33.907Z,43.22
2022-12-11T20:11:31.343Z,52.42
2022-12-11T20:13:58.738Z,48.85
2022-12-11T20:17:22.822Z,51.75
2022-12-11T20:20:22.169Z,52.28
2022-12-11T20:22:57.942Z,50.08
2022-12-11T20:25:28.096Z,52.10
2022-12-11T20:27:59.205Z,50.20
2022-12-11T20:30:27.919Z,51.33
2022-12-11T20:32:56.432Z,45.75
2022-12-11T20:35:26.435Z,46.13
2022-12-11T20:37:55.521Z,47.53
2022-12-11T20:40:23.423Z,47.15
2022-12-11T20:42:52.130Z,47.83
2022-12-11T20:45:20.297Z,47.72
2022-12-11T20:47:50.741Z,50.95
2022-12-11T20:50:18.158Z,50.58
2022-12-11T20:52:45.579Z,48.22
2022-12-11T20:55:13.395Z,47.70
2022-12-11T20:57:45.259Z,48.03
2022-12-11T21:00:20.046Z,50.13
2022-12-11T21:02:49.592Z,49.40
2022-12-11T21:05:17.050Z,46.95
2022-12-11T21:07:44.753Z,46.10
2022-12-11T21:10:13.271Z,45.55
2022-12-11T21:12:40.664Z,46.50
2022-12-11T21:15:08.555Z,47.90
2022-12-11T21:17:36.021Z,50.13
2022-12-11T21:20:03.643Z,47.00
2022-12-11T21:22:30.950Z,50.72
2022-12-11T21:24:58.259Z,48.20
2022-12-11T21:27:25.578Z,49.85
2022-12-11T21:29:52.834Z,48.10
2022-12-11T21:32:20.620Z,43.42
2022-12-11T21:34:47.821Z,44.97
2022-12-11T21:37:15.116Z,43.67
2022-12-11T21:39:42.425Z,42.03
2022-12-11T21:42:09.715Z,44.28
2022-12-11T21:47:24.659Z,44.58
2022-12-11T21:49:52.178Z,46.00
2022-12-11T21:52:19.746Z,46.20
2022-12-11T21:54:47.022Z,49.45
2022-12-11T21:57:14.334Z,45.22
2022-12-11T21:59:41.639Z,42.95
2022-12-11T22:02:11.324Z,45.15
2022-12-11T22:04:39.065Z,48.78
2022-12-11T22:07:06.343Z,40.03
2022-12-11T22:09:33.699Z,44.53
2022-12-11T22:12:00.954Z,43.97
2022-12-11T22:14:30.943Z,41.83
2022-12-11T22:17:02.071Z,43.83
2022-12-11T22:19:32.676Z,45.50
2022-12-11T22:22:00.357Z,44.90
2022-12-11T22:24:27.980Z,46.17
2022-12-11T22:26:55.456Z,50.78
2022-12-11T22:29:22.746Z,51.25
2022-12-11T22:31:50.257Z,45.35
2022-12-11T22:34:17.482Z,43.38
2022-12-11T22:36:44.867Z,41.20
2022-12-11T22:39:12.144Z,42.78
2022-12-11T22:41:42.327Z,44.65
2022-12-11T22:44:20.283Z,46.40
2022-12-11T22:46:50.235Z,45.03
2022-12-11T22:49:19.033Z,47.45
2022-12-11T22:51:46.336Z,44.67
2022-12-11T22:54:13.564Z,45.05
2022-12-11T22:56:40.851Z,43.17
2022-12-11T22:59:09.241Z,45.35
2022-12-11T23:01:36.732Z,47.47
2022-12-11T23:04:04.085Z,46.42
2022-12-11T23:06:31.369Z,46.50
2022-12-11T23:08:59.900Z,48.10
2022-12-11T23:11:36.400Z,45.80
2022-12-11T23:14:08.780Z,47.78
2022-12-11T23:16:36.278Z,50.22
2022-12-11T23:19:03.890Z,45.63
2022-12-11T23:21:31.235Z,47.80
2022-12-11T23:23:59.215Z,50.90
2022-12-11T23:26:28.406Z,45.60
2022-12-11T23:28:56.979Z,48.28
2022-12-11T23:31:26.094Z,47.05
2022-12-11T23:33:53.628Z,50.15
2022-12-11T23:36:21.411Z,51.03
2022-12-11T23:38:54.362Z,51.67
2022-12-11T23:41:22.693Z,50.28
2022-12-11T23:43:50.063Z,51.97
2022-12-11T23:46:20.056Z,55.90
2022-12-11T23:48:48.379Z,48.90
2022-12-11T23:51:17.640Z,54.38
2022-12-11T23:53:45.239Z,57.30
2022-12-11T23:56:15.713Z,53.95
2022-12-11T23:58:43.062Z,51.47
